sensor_id;sensor_type;location;lat;lon;timestamp;P1;durP1;ratioP1;P2;durP2;ratioP2
15474;SDS011;7839;50.462;9.678;2023-09-19T00:04:19;1.02;;;0.88;;
15474;SDS011;7839;50.462;9.678;2023-09-19T00:11:03;0.65;;;0.63;;
15474;SDS011;7839;50.462;9.678;2023-09-19T00:17:44;0.80;;;0.80;;
15474;SDS011;7839;50.462;9.678;2023-09-19T00:24:24;0.80;;;0.80;;
15474;SDS011;7839;50.462;9.678;2023-09-19T00:31:04;0.65;;;0.65;;
15474;SDS011;7839;50.462;9.678;2023-09-19T00:37:45;1.17;;;0.70;;
15474;SDS011;7839;50.462;9.678;2023-09-19T00:44:25;0.82;;;0.60;;
15474;SDS011;7839;50.462;9.678;2023-09-19T00:51:06;0.85;;;0.80;;
15474;SDS011;7839;50.462;9.678;2023-09-19T00:57:47;1.00;;;0.75;;
15474;SDS011;7839;50.462;9.678;2023-09-19T01:04:29;1.33;;;0.95;;
15474;SDS011;7839;50.462;9.678;2023-09-19T01:11:20;1.10;;;0.80;;
15474;SDS011;7839;50.462;9.678;2023-09-19T01:18:09;1.58;;;0.90;;
15474;SDS011;7839;50.462;9.678;2023-09-19T01:31:37;0.85;;;0.85;;
15474;SDS011;7839;50.462;9.678;2023-09-19T01:38:19;1.20;;;0.90;;
15474;SDS011;7839;50.462;9.678;2023-09-19T01:45:08;0.85;;;0.77;;
15474;SDS011;7839;50.462;9.678;2023-09-19T01:52:11;0.93;;;0.82;;
15474;SDS011;7839;50.462;9.678;2023-09-19T01:58:56;1.23;;;0.88;;
15474;SDS011;7839;50.462;9.678;2023-09-19T02:05:39;1.70;;;1.10;;
15474;SDS011;7839;50.462;9.678;2023-09-19T02:12:19;0.60;;;0.60;;
15474;SDS011;7839;50.462;9.678;2023-09-19T02:19:00;0.90;;;0.90;;
15474;SDS011;7839;50.462;9.678;2023-09-19T02:25:40;0.60;;;0.60;;
15474;SDS011;7839;50.462;9.678;2023-09-19T02:32:21;0.82;;;0.82;;
15474;SDS011;7839;50.462;9.678;2023-09-19T02:39:01;1.20;;;0.90;;
15474;SDS011;7839;50.462;9.678;2023-09-19T02:45:41;0.93;;;0.88;;
15474;SDS011;7839;50.462;9.678;2023-09-19T02:52:21;1.40;;;0.77;;
15474;SDS011;7839;50.462;9.678;2023-09-19T02:59:02;2.08;;;1.13;;
15474;SDS011;7839;50.462;9.678;2023-09-19T03:05:43;0.80;;;0.80;;
15474;SDS011;7839;50.462;9.678;2023-09-19T03:12:26;1.05;;;0.93;;
15474;SDS011;7839;50.462;9.678;2023-09-19T03:19:07;0.73;;;0.73;;
15474;SDS011;7839;50.462;9.678;2023-09-19T03:25:47;1.48;;;0.75;;
15474;SDS011;7839;50.462;9.678;2023-09-19T03:32:27;0.80;;;0.80;;
15474;SDS011;7839;50.462;9.678;2023-09-19T03:39:08;0.90;;;0.90;;
15474;SDS011;7839;50.462;9.678;2023-09-19T03:45:48;0.70;;;0.70;;
15474;SDS011;7839;50.462;9.678;2023-09-19T03:52:29;1.23;;;1.00;;
15474;SDS011;7839;50.462;9.678;2023-09-19T03:59:09;0.82;;;0.82;;
15474;SDS011;7839;50.462;9.678;2023-09-19T04:05:50;1.00;;;0.90;;
15474;SDS011;7839;50.462;9.678;2023-09-19T04:12:30;0.70;;;0.70;;
15474;SDS011;7839;50.462;9.678;2023-09-19T04:19:11;1.67;;;0.90;;
15474;SDS011;7839;50.462;9.678;2023-09-19T04:25:52;0.80;;;0.80;;
15474;SDS011;7839;50.462;9.678;2023-09-19T04:32:33;0.70;;;0.70;;
15474;SDS011;7839;50.462;9.678;2023-09-19T04:39:13;1.08;;;0.80;;
15474;SDS011;7839;50.462;9.678;2023-09-19T04:45:54;0.85;;;0.85;;
15474;SDS011;7839;50.462;9.678;2023-09-19T04:52:35;0.77;;;0.75;;
15474;SDS011;7839;50.462;9.678;2023-09-19T04:59:15;0.93;;;0.90;;
15474;SDS011;7839;50.462;9.678;2023-09-19T05:05:56;0.70;;;0.70;;
15474;SDS011;7839;50.462;9.678;2023-09-19T05:12:36;0.60;;;0.60;;
15474;SDS011;7839;50.462;9.678;2023-09-19T05:19:16;1.67;;;0.80;;
15474;SDS011;7839;50.462;9.678;2023-09-19T05:25:57;1.30;;;0.77;;
15474;SDS011;7839;50.462;9.678;2023-09-19T05:32:38;1.13;;;0.80;;
15474;SDS011;7839;50.462;9.678;2023-09-19T05:39:18;0.93;;;0.70;;
15474;SDS011;7839;50.462;9.678;2023-09-19T05:45:59;0.60;;;0.60;;
15474;SDS011;7839;50.462;9.678;2023-09-19T05:52:39;0.80;;;0.80;;
15474;SDS011;7839;50.462;9.678;2023-09-19T05:59:20;2.47;;;1.00;;
15474;SDS011;7839;50.462;9.678;2023-09-19T06:06:01;2.10;;;0.88;;
15474;SDS011;7839;50.462;9.678;2023-09-19T06:12:41;1.25;;;0.90;;
15474;SDS011;7839;50.462;9.678;2023-09-19T06:19:24;0.95;;;0.70;;
15474;SDS011;7839;50.462;9.678;2023-09-19T06:26:05;0.60;;;0.60;;
15474;SDS011;7839;50.462;9.678;2023-09-19T06:32:46;1.05;;;0.73;;
15474;SDS011;7839;50.462;9.678;2023-09-19T06:39:28;1.20;;;0.88;;
15474;SDS011;7839;50.462;9.678;2023-09-19T06:46:08;1.17;;;0.85;;
15474;SDS011;7839;50.462;9.678;2023-09-19T06:52:50;1.08;;;0.95;;
15474;SDS011;7839;50.462;9.678;2023-09-19T06:59:31;0.98;;;0.90;;
15474;SDS011;7839;50.462;9.678;2023-09-19T07:06:12;1.02;;;0.77;;
15474;SDS011;7839;50.462;9.678;2023-09-19T07:19:35;1.75;;;1.13;;
15474;SDS011;7839;50.462;9.678;2023-09-19T07:26:16;1.33;;;0.90;;
15474;SDS011;7839;50.462;9.678;2023-09-19T07:32:56;3.85;;;1.30;;
15474;SDS011;7839;50.462;9.678;2023-09-19T07:39:36;1.20;;;0.63;;
15474;SDS011;7839;50.462;9.678;2023-09-19T07:46:16;1.25;;;0.75;;
15474;SDS011;7839;50.462;9.678;2023-09-19T07:52:57;1.20;;;0.80;;
15474;SDS011;7839;50.462;9.678;2023-09-19T07:59:37;1.08;;;0.77;;
15474;SDS011;7839;50.462;9.678;2023-09-19T08:06:18;1.38;;;0.98;;
15474;SDS011;7839;50.462;9.678;2023-09-19T08:13:00;1.23;;;1.13;;
15474;SDS011;7839;50.462;9.678;2023-09-19T08:19:42;1.30;;;0.80;;
15474;SDS011;7839;50.462;9.678;2023-09-19T08:26:24;2.50;;;0.85;;
15474;SDS011;7839;50.462;9.678;2023-09-19T08:33:05;0.85;;;0.85;;
15474;SDS011;7839;50.462;9.678;2023-09-19T08:39:45;1.17;;;0.98;;
15474;SDS011;7839;50.462;9.678;2023-09-19T08:46:26;2.38;;;1.27;;
15474;SDS011;7839;50.462;9.678;2023-09-19T08:53:10;1.40;;;0.90;;
15474;SDS011;7839;50.462;9.678;2023-09-19T08:59:51;1.23;;;1.00;;
15474;SDS011;7839;50.462;9.678;2023-09-19T09:06:31;1.38;;;0.95;;
15474;SDS011;7839;50.462;9.678;2023-09-19T09:13:12;1.45;;;1.00;;
15474;SDS011;7839;50.462;9.678;2023-09-19T09:19:54;1.10;;;0.85;;
15474;SDS011;7839;50.462;9.678;2023-09-19T09:26:40;1.42;;;1.00;;
15474;SDS011;7839;50.462;9.678;2023-09-19T09:33:21;0.80;;;0.80;;
15474;SDS011;7839;50.462;9.678;2023-09-19T09:40:02;1.17;;;0.98;;
15474;SDS011;7839;50.462;9.678;2023-09-19T09:46:55;1.33;;;1.10;;
15474;SDS011;7839;50.462;9.678;2023-09-19T09:53:40;1.23;;;1.13;;
15474;SDS011;7839;50.462;9.678;2023-09-19T10:00:20;3.30;;;1.30;;
15474;SDS011;7839;50.462;9.678;2023-09-19T10:07:00;1.10;;;1.00;;
15474;SDS011;7839;50.462;9.678;2023-09-19T10:13:45;1.65;;;1.23;;
15474;SDS011;7839;50.462;9.678;2023-09-19T10:20:27;1.42;;;1.20;;
15474;SDS011;7839;50.462;9.678;2023-09-19T10:27:10;1.10;;;1.10;;
15474;SDS011;7839;50.462;9.678;2023-09-19T10:33:51;2.80;;;1.10;;
15474;SDS011;7839;50.462;9.678;2023-09-19T10:40:32;1.27;;;1.08;;
15474;SDS011;7839;50.462;9.678;2023-09-19T10:47:12;1.95;;;1.30;;
15474;SDS011;7839;50.462;9.678;2023-09-19T10:53:54;3.33;;;1.48;;
15474;SDS011;7839;50.462;9.678;2023-09-19T11:00:49;1.23;;;1.15;;
15474;SDS011;7839;50.462;9.678;2023-09-19T11:07:30;1.83;;;1.40;;
15474;SDS011;7839;50.462;9.678;2023-09-19T11:34:46;1.58;;;1.17;;
15474;SDS011;7839;50.462;9.678;2023-09-19T11:41:36;2.95;;;1.63;;
15474;SDS011;7839;50.462;9.678;2023-09-19T11:48:18;1.30;;;1.20;;
15474;SDS011;7839;50.462;9.678;2023-09-19T11:54:58;1.95;;;1.30;;
15474;SDS011;7839;50.462;9.678;2023-09-19T12:01:42;1.40;;;1.30;;
15474;SDS011;7839;50.462;9.678;2023-09-19T12:08:29;1.67;;;1.27;;
15474;SDS011;7839;50.462;9.678;2023-09-19T12:15:10;1.53;;;1.40;;
15474;SDS011;7839;50.462;9.678;2023-09-19T12:21:58;1.60;;;1.33;;
15474;SDS011;7839;50.462;9.678;2023-09-19T12:28:41;1.98;;;1.27;;
15474;SDS011;7839;50.462;9.678;2023-09-19T12:35:28;4.18;;;1.45;;
15474;SDS011;7839;50.462;9.678;2023-09-19T12:42:10;1.80;;;1.60;;
15474;SDS011;7839;50.462;9.678;2023-09-19T12:55:59;2.50;;;1.50;;
15474;SDS011;7839;50.462;9.678;2023-09-19T13:03:08;2.22;;;1.63;;
15474;SDS011;7839;50.462;9.678;2023-09-19T13:09:39;2.63;;;1.58;;
15474;SDS011;7839;50.462;9.678;2023-09-19T13:16:20;1.83;;;1.65;;
15474;SDS011;7839;50.462;9.678;2023-09-19T13:23:05;2.03;;;1.65;;
15474;SDS011;7839;50.462;9.678;2023-09-19T13:29:50;4.88;;;2.08;;
15474;SDS011;7839;50.462;9.678;2023-09-19T13:36:30;2.80;;;1.67;;
15474;SDS011;7839;50.462;9.678;2023-09-19T13:43:11;2.60;;;1.65;;
15474;SDS011;7839;50.462;9.678;2023-09-19T13:49:51;3.72;;;1.80;;
15474;SDS011;7839;50.462;9.678;2023-09-19T13:56:33;1.65;;;1.55;;
15474;SDS011;7839;50.462;9.678;2023-09-19T14:03:13;2.15;;;1.60;;
15474;SDS011;7839;50.462;9.678;2023-09-19T14:09:54;3.30;;;1.73;;
15474;SDS011;7839;50.462;9.678;2023-09-19T14:16:34;2.70;;;1.45;;
15474;SDS011;7839;50.462;9.678;2023-09-19T14:23:14;3.28;;;1.70;;
15474;SDS011;7839;50.462;9.678;2023-09-19T14:29:54;1.83;;;1.58;;
15474;SDS011;7839;50.462;9.678;2023-09-19T14:36:36;1.45;;;1.30;;
15474;SDS011;7839;50.462;9.678;2023-09-19T14:43:18;3.28;;;1.50;;
15474;SDS011;7839;50.462;9.678;2023-09-19T14:50:00;2.53;;;1.50;;
15474;SDS011;7839;50.462;9.678;2023-09-19T14:56:41;3.47;;;1.40;;
15474;SDS011;7839;50.462;9.678;2023-09-19T15:03:21;2.33;;;1.58;;
15474;SDS011;7839;50.462;9.678;2023-09-19T15:10:01;1.55;;;1.15;;
15474;SDS011;7839;50.462;9.678;2023-09-19T15:16:41;2.05;;;1.50;;
15474;SDS011;7839;50.462;9.678;2023-09-19T15:23:23;1.45;;;1.35;;
15474;SDS011;7839;50.462;9.678;2023-09-19T15:30:04;1.90;;;1.45;;
15474;SDS011;7839;50.462;9.678;2023-09-19T15:36:45;1.77;;;1.38;;
15474;SDS011;7839;50.462;9.678;2023-09-19T15:43:26;1.67;;;1.30;;
15474;SDS011;7839;50.462;9.678;2023-09-19T15:50:06;1.83;;;1.30;;
15474;SDS011;7839;50.462;9.678;2023-09-19T15:56:49;2.70;;;1.80;;
15474;SDS011;7839;50.462;9.678;2023-09-19T16:03:31;2.65;;;1.17;;
15474;SDS011;7839;50.462;9.678;2023-09-19T16:10:11;3.20;;;1.30;;
15474;SDS011;7839;50.462;9.678;2023-09-19T16:16:53;3.53;;;1.60;;
15474;SDS011;7839;50.462;9.678;2023-09-19T16:23:34;1.88;;;1.17;;
15474;SDS011;7839;50.462;9.678;2023-09-19T16:30:15;2.38;;;1.23;;
15474;SDS011;7839;50.462;9.678;2023-09-19T16:36:55;2.20;;;1.52;;
15474;SDS011;7839;50.462;9.678;2023-09-19T16:43:36;1.55;;;1.17;;
15474;SDS011;7839;50.462;9.678;2023-09-19T16:50:16;1.58;;;1.00;;
15474;SDS011;7839;50.462;9.678;2023-09-19T16:56:56;2.42;;;1.45;;
15474;SDS011;7839;50.462;9.678;2023-09-19T17:03:37;2.28;;;1.33;;
15474;SDS011;7839;50.462;9.678;2023-09-19T17:10:19;1.42;;;1.20;;
15474;SDS011;7839;50.462;9.678;2023-09-19T17:17:00;1.20;;;1.10;;
15474;SDS011;7839;50.462;9.678;2023-09-19T17:23:40;1.73;;;1.15;;
15474;SDS011;7839;50.462;9.678;2023-09-19T17:30:20;1.25;;;1.15;;
15474;SDS011;7839;50.462;9.678;2023-09-19T17:37:02;1.58;;;1.40;;
15474;SDS011;7839;50.462;9.678;2023-09-19T17:43:43;1.35;;;1.33;;
15474;SDS011;7839;50.462;9.678;2023-09-19T17:50:23;1.20;;;1.10;;
15474;SDS011;7839;50.462;9.678;2023-09-19T17:57:04;1.17;;;1.15;;
15474;SDS011;7839;50.462;9.678;2023-09-19T18:03:44;1.88;;;1.38;;
15474;SDS011;7839;50.462;9.678;2023-09-19T18:10:24;1.50;;;1.40;;
15474;SDS011;7839;50.462;9.678;2023-09-19T18:17:06;3.22;;;1.30;;
15474;SDS011;7839;50.462;9.678;2023-09-19T18:23:56;2.30;;;1.25;;
15474;SDS011;7839;50.462;9.678;2023-09-19T18:30:40;1.42;;;1.15;;
15474;SDS011;7839;50.462;9.678;2023-09-19T18:37:20;1.85;;;1.25;;
15474;SDS011;7839;50.462;9.678;2023-09-19T18:44:02;1.23;;;1.13;;
15474;SDS011;7839;50.462;9.678;2023-09-19T18:50:42;1.20;;;1.10;;
15474;SDS011;7839;50.462;9.678;2023-09-19T18:57:22;1.70;;;1.05;;
15474;SDS011;7839;50.462;9.678;2023-09-19T19:04:02;1.17;;;1.08;;
15474;SDS011;7839;50.462;9.678;2023-09-19T19:10:43;0.98;;;0.98;;
15474;SDS011;7839;50.462;9.678;2023-09-19T19:17:23;1.27;;;1.10;;
15474;SDS011;7839;50.462;9.678;2023-09-19T19:24:04;2.08;;;1.00;;
15474;SDS011;7839;50.462;9.678;2023-09-19T19:30:44;1.95;;;1.10;;
15474;SDS011;7839;50.462;9.678;2023-09-19T19:37:26;1.08;;;0.93;;
15474;SDS011;7839;50.462;9.678;2023-09-19T19:44:06;1.10;;;1.02;;
15474;SDS011;7839;50.462;9.678;2023-09-19T19:50:47;1.42;;;1.00;;
15474;SDS011;7839;50.462;9.678;2023-09-19T19:57:28;1.30;;;1.20;;
15474;SDS011;7839;50.462;9.678;2023-09-19T20:04:08;2.20;;;1.10;;
15474;SDS011;7839;50.462;9.678;2023-09-19T20:10:48;0.90;;;0.55;;
15474;SDS011;7839;50.462;9.678;2023-09-19T20:17:28;1.15;;;0.90;;
15474;SDS011;7839;50.462;9.678;2023-09-19T20:24:09;1.38;;;0.95;;
15474;SDS011;7839;50.462;9.678;2023-09-19T20:30:51;1.52;;;1.10;;
15474;SDS011;7839;50.462;9.678;2023-09-19T20:37:32;1.40;;;1.10;;
15474;SDS011;7839;50.462;9.678;2023-09-19T20:44:13;1.10;;;1.00;;
15474;SDS011;7839;50.462;9.678;2023-09-19T20:50:53;1.00;;;1.00;;
15474;SDS011;7839;50.462;9.678;2023-09-19T20:57:34;1.45;;;0.85;;
15474;SDS011;7839;50.462;9.678;2023-09-19T21:04:15;0.95;;;0.82;;
15474;SDS011;7839;50.462;9.678;2023-09-19T21:10:55;1.75;;;0.95;;
15474;SDS011;7839;50.462;9.678;2023-09-19T21:17:36;0.80;;;0.80;;
15474;SDS011;7839;50.462;9.678;2023-09-19T21:24:37;1.55;;;1.40;;
15474;SDS011;7839;50.462;9.678;2023-09-19T21:31:18;0.65;;;0.63;;
15474;SDS011;7839;50.462;9.678;2023-09-19T21:37:58;2.65;;;1.02;;
15474;SDS011;7839;50.462;9.678;2023-09-19T21:44:38;0.90;;;0.90;;
15474;SDS011;7839;50.462;9.678;2023-09-19T21:51:18;0.80;;;0.80;;
15474;SDS011;7839;50.462;9.678;2023-09-19T21:57:58;1.67;;;0.95;;
15474;SDS011;7839;50.462;9.678;2023-09-19T22:04:38;0.90;;;0.90;;
15474;SDS011;7839;50.462;9.678;2023-09-19T22:11:20;0.80;;;0.80;;
15474;SDS011;7839;50.462;9.678;2023-09-19T22:18:02;1.02;;;0.90;;
15474;SDS011;7839;50.462;9.678;2023-09-19T22:24:50;0.90;;;0.80;;
15474;SDS011;7839;50.462;9.678;2023-09-19T22:31:36;2.05;;;1.00;;
15474;SDS011;7839;50.462;9.678;2023-09-19T22:38:22;1.00;;;0.90;;
15474;SDS011;7839;50.462;9.678;2023-09-19T22:45:02;0.80;;;0.80;;
15474;SDS011;7839;50.462;9.678;2023-09-19T22:51:44;0.80;;;0.80;;
15474;SDS011;7839;50.462;9.678;2023-09-19T22:58:26;1.10;;;0.80;;
15474;SDS011;7839;50.462;9.678;2023-09-19T23:05:09;1.33;;;0.80;;
15474;SDS011;7839;50.462;9.678;2023-09-19T23:11:55;1.23;;;0.85;;
15474;SDS011;7839;50.462;9.678;2023-09-19T23:18:40;1.20;;;0.85;;
15474;SDS011;7839;50.462;9.678;2023-09-19T23:25:24;0.70;;;0.70;;
15474;SDS011;7839;50.462;9.678;2023-09-19T23:32:20;1.25;;;1.00;;
15474;SDS011;7839;50.462;9.678;2023-09-19T23:39:01;0.70;;;0.70;;
15474;SDS011;7839;50.462;9.678;2023-09-19T23:45:41;0.88;;;0.73;;
15474;SDS011;7839;50.462;9.678;2023-09-19T23:52:21;0.80;;;0.80;;
15474;SDS011;7839;50.462;9.678;2023-09-19T23:59:02;2.35;;;1.05;;
